createdAt,value
2024-01-28T00:01:26.665Z,101412.94
2024-01-28T00:03:54.384Z,101407.63
2024-01-28T00:06:22.134Z,101410.28
2024-01-28T00:08:51.048Z,101408.47
2024-01-28T00:11:18.550Z,101405.03
2024-01-28T00:13:46.104Z,101402.28
2024-01-28T00:16:15.294Z,101391.63
2024-01-28T00:18:43.244Z,101388.09
2024-01-28T00:21:10.922Z,101388.09
2024-01-28T00:23:38.444Z,101378.66
2024-01-28T00:26:08.242Z,101384.66
2024-01-28T00:28:35.805Z,101379.31
2024-01-28T00:31:03.353Z,101383.91
2024-01-28T00:33:30.950Z,101372.38
2024-01-28T00:35:58.686Z,101370.44
2024-01-28T00:38:32.152Z,101367.75
2024-01-28T00:40:59.645Z,101361.78
2024-01-28T00:43:28.813Z,101357.34
2024-01-28T00:45:56.326Z,101353.88
2024-01-28T00:48:24.009Z,101360.03
2024-01-28T00:50:51.853Z,101349.41
2024-01-28T00:53:19.736Z,101345.09
2024-01-28T00:55:47.295Z,101339.00
2024-01-28T00:58:14.817Z,101334.63
2024-01-28T01:00:43.798Z,101334.69
2024-01-28T01:03:11.311Z,101322.13
2024-01-28T01:05:42.604Z,101329.31
2024-01-28T01:08:10.188Z,101315.34
2024-01-28T01:10:37.741Z,101310.19
2024-01-28T01:13:05.562Z,101307.59
2024-01-28T01:15:33.380Z,101319.91
2024-01-28T01:18:02.395Z,101317.22
2024-01-28T01:20:29.799Z,101315.19
2024-01-28T01:22:57.311Z,101320.75
2024-01-28T01:25:24.839Z,101318.25
2024-01-28T01:27:53.452Z,101314.50
2024-01-28T01:30:21.186Z,101314.63
2024-01-28T01:32:48.828Z,101314.56
2024-01-28T01:35:17.856Z,101308.28
2024-01-28T01:37:45.234Z,101309.03
2024-01-28T01:40:15.340Z,101296.72
2024-01-28T01:42:43.313Z,101299.44
2024-01-28T01:45:11.251Z,101307.47
2024-01-28T01:47:38.812Z,101304.97
2024-01-28T01:50:07.391Z,101311.00
2024-01-28T01:52:36.357Z,101303.97
2024-01-28T01:55:03.977Z,101302.19
2024-01-28T01:57:31.545Z,101294.13
2024-01-28T01:59:59.155Z,101296.03
2024-01-28T02:02:27.184Z,101289.00
2024-01-28T02:04:54.790Z,101285.41
2024-01-28T02:07:22.561Z,101287.97
2024-01-28T02:09:51.414Z,101286.91
2024-01-28T02:12:18.934Z,101297.59
2024-01-28T02:14:47.090Z,101287.16
2024-01-28T02:17:14.661Z,101284.75
2024-01-28T02:19:42.615Z,101291.78
2024-01-28T02:22:12.465Z,101292.41
2024-01-28T02:24:41.475Z,101274.09
2024-01-28T02:27:09.073Z,101282.88
2024-01-28T02:29:36.632Z,101273.25
2024-01-28T02:32:05.037Z,101275.03
2024-01-28T02:34:32.680Z,101276.84
2024-01-28T02:37:00.191Z,101280.16
2024-01-28T02:39:27.706Z,101281.28
2024-01-28T02:41:56.617Z,101272.50
2024-01-28T02:44:24.141Z,101273.38
2024-01-28T02:46:51.661Z,101260.19
2024-01-28T02:49:19.306Z,101252.25
2024-01-28T02:51:46.944Z,101244.34
2024-01-28T02:54:14.654Z,101242.34
2024-01-28T02:56:42.332Z,101236.09
2024-01-28T02:59:11.307Z,101232.56
2024-01-28T03:01:45.335Z,101235.16
2024-01-28T03:04:12.940Z,101238.00
2024-01-28T03:06:40.603Z,101229.22
2024-01-28T03:09:08.479Z,101222.19
2024-01-28T03:11:36.153Z,101225.63
2024-01-28T03:14:03.666Z,101211.59
2024-01-28T03:16:32.512Z,101212.47
2024-01-28T03:19:00.163Z,101205.41
2024-01-28T03:21:27.789Z,101203.59
2024-01-28T03:23:55.361Z,101187.75
2024-01-28T03:26:22.873Z,101191.44
2024-01-28T03:28:50.372Z,101183.50
2024-01-28T03:31:18.992Z,101186.38
2024-01-28T03:33:48.090Z,101177.66
2024-01-28T03:36:15.690Z,101180.13
2024-01-28T03:38:43.226Z,101182.03
2024-01-28T03:41:10.750Z,101184.44
2024-01-28T03:43:38.355Z,101188.09
2024-01-28T03:46:08.507Z,101188.84
2024-01-28T03:48:36.146Z,101190.59
2024-01-28T03:51:05.693Z,101183.69
2024-01-28T03:53:33.290Z,101188.75
2024-01-28T03:56:00.855Z,101184.34
2024-01-28T03:58:28.343Z,101183.34
2024-01-28T04:00:56.038Z,101185.00
2024-01-28T04:03:23.659Z,101178.81
2024-01-28T04:05:51.723Z,101178.19
2024-01-28T04:08:20.542Z,101171.88
2024-01-28T04:10:48.118Z,101171.16
2024-01-28T04:13:15.799Z,101166.09
2024-01-28T04:15:43.540Z,101160.66
2024-01-28T04:18:11.308Z,101153.69
2024-01-28T04:20:38.938Z,101154.41
2024-01-28T04:23:06.543Z,101154.44
2024-01-28T04:25:35.379Z,101150.00
2024-01-28T04:28:02.874Z,101151.78
2024-01-28T04:30:30.435Z,101149.09
2024-01-28T04:32:58.055Z,101150.78
2024-01-28T04:35:25.609Z,101146.50
2024-01-28T04:37:53.147Z,101142.91
2024-01-28T04:40:21.344Z,101149.31
2024-01-28T04:42:50.195Z,101153.69
2024-01-28T04:45:18.411Z,101151.16
2024-01-28T04:47:46.000Z,101157.19
2024-01-28T04:50:13.842Z,101146.81
2024-01-28T04:52:41.469Z,101146.63
2024-01-28T04:55:10.455Z,101144.16
2024-01-28T04:57:38.033Z,101147.56
2024-01-28T05:00:11.405Z,101142.13
2024-01-28T05:02:38.974Z,101136.94
2024-01-28T05:05:07.093Z,101146.63
2024-01-28T05:07:35.096Z,101140.44
2024-01-28T05:10:02.634Z,101144.06
2024-01-28T05:12:30.268Z,101148.34
2024-01-28T05:14:57.931Z,101138.75
2024-01-28T05:17:26.765Z,101143.81
2024-01-28T05:19:54.363Z,101139.63
2024-01-28T05:22:23.534Z,101146.38
2024-01-28T05:24:51.512Z,101144.84
2024-01-28T05:27:19.179Z,101144.69
2024-01-28T05:29:46.923Z,101138.63
2024-01-28T05:32:15.629Z,101143.16
2024-01-28T05:34:44.669Z,101143.06
2024-01-28T05:37:16.029Z,101145.84
2024-01-28T05:39:43.639Z,101152.88
2024-01-28T05:42:11.247Z,101155.56
2024-01-28T05:44:38.769Z,101155.50
2024-01-28T05:47:06.650Z,101158.13
2024-01-28T05:49:35.449Z,101157.34
2024-01-28T05:52:04.795Z,101155.59
2024-01-28T05:54:33.793Z,101154.81
2024-01-28T05:57:03.342Z,101147.88
2024-01-28T05:59:30.843Z,101153.97
2024-01-28T06:01:58.350Z,101139.88
2024-01-28T06:04:25.981Z,101137.03
2024-01-28T06:06:53.780Z,101129.94
2024-01-28T06:09:22.692Z,101134.22
2024-01-28T06:11:51.018Z,101138.59
2024-01-28T06:14:18.507Z,101133.38
2024-01-28T06:16:45.104Z,101123.84
2024-01-28T06:19:12.716Z,101124.75
2024-01-28T06:21:40.328Z,101130.97
2024-01-28T06:24:08.254Z,101128.31
2024-01-28T06:26:39.630Z,101125.81
2024-01-28T06:29:07.186Z,101124.81
2024-01-28T06:31:34.649Z,101108.25
2024-01-28T06:34:02.270Z,101114.56
2024-01-28T06:36:29.867Z,101108.09
2024-01-28T06:38:58.812Z,101109.09
2024-01-28T06:41:26.862Z,101113.47
2024-01-28T06:43:55.742Z,101107.38
2024-01-28T06:46:23.350Z,101112.34
2024-01-28T06:48:51.004Z,101109.69
2024-01-28T06:51:19.325Z,101102.81
2024-01-28T06:53:47.054Z,101112.69
2024-01-28T06:56:14.830Z,101114.28
2024-01-28T06:58:43.105Z,101112.44
2024-01-28T07:01:13.581Z,101118.81
2024-01-28T07:03:41.470Z,101109.97
2024-01-28T07:06:09.287Z,101110.13
2024-01-28T07:08:37.211Z,101105.75
2024-01-28T07:11:05.417Z,101104.84
2024-01-28T07:13:32.969Z,101110.84
2024-01-28T07:16:00.580Z,101103.94
2024-01-28T07:18:30.106Z,101104.91
2024-01-28T07:20:57.626Z,101104.16
2024-01-28T07:23:25.144Z,101103.25
2024-01-28T07:25:52.686Z,101103.31
2024-01-28T07:28:20.340Z,101096.09
2024-01-28T07:30:47.922Z,101098.03
2024-01-28T07:33:17.082Z,101101.19
2024-01-28T07:35:46.247Z,101095.78
2024-01-28T07:38:13.764Z,101097.56
2024-01-28T07:40:41.331Z,101101.19
2024-01-28T07:43:08.936Z,101098.59
2024-01-28T07:45:38.439Z,101096.59
2024-01-28T07:48:06.677Z,101090.63
2024-01-28T07:50:34.355Z,101083.56
2024-01-28T07:53:03.323Z,101087.16
2024-01-28T07:55:30.857Z,101078.41
2024-01-28T07:57:58.413Z,101074.97
2024-01-28T08:00:27.094Z,101073.28
2024-01-28T08:02:57.101Z,101069.59
2024-01-28T08:05:25.628Z,101073.22
2024-01-28T08:07:53.545Z,101060.78
2024-01-28T08:10:24.827Z,101075.72
2024-01-28T08:12:53.027Z,101066.13
2024-01-28T08:15:21.295Z,101066.13
2024-01-28T08:17:50.555Z,101061.75
2024-01-28T08:20:18.628Z,101056.38
2024-01-28T08:22:46.206Z,101062.63
2024-01-28T08:25:13.951Z,101057.41
2024-01-28T08:27:42.957Z,101060.13
2024-01-28T08:30:12.516Z,101060.09
2024-01-28T08:32:40.188Z,101055.59
2024-01-28T08:35:08.591Z,101058.19
2024-01-28T08:37:36.300Z,101061.63
2024-01-28T08:40:08.294Z,101056.47
2024-01-28T08:42:35.842Z,101057.28
2024-01-28T08:45:05.479Z,101061.66
2024-01-28T08:47:33.065Z,101058.13
2024-01-28T08:50:01.030Z,101070.25
2024-01-28T08:52:28.635Z,101066.66
2024-01-28T08:54:56.417Z,101065.63
2024-01-28T08:57:24.027Z,101062.94
2024-01-28T08:59:51.535Z,101060.31
2024-01-28T09:02:20.565Z,101062.94
2024-01-28T09:04:48.067Z,101058.44
2024-01-28T09:07:15.720Z,101054.78
2024-01-28T09:09:43.223Z,101059.19
2024-01-28T09:12:10.973Z,101058.44
2024-01-28T09:14:38.513Z,101055.72
2024-01-28T09:17:06.093Z,101059.31
2024-01-28T09:19:34.977Z,101053.09
2024-01-28T09:22:02.838Z,101048.69
2024-01-28T09:24:30.348Z,101051.28
2024-01-28T09:26:59.689Z,101046.84
2024-01-28T09:29:28.733Z,101047.66
2024-01-28T09:31:57.069Z,101047.66
2024-01-28T09:34:25.328Z,101049.25
2024-01-28T09:36:54.352Z,101051.97
2024-01-28T09:39:21.943Z,101045.84
2024-01-28T09:41:51.304Z,101054.44
2024-01-28T09:44:18.865Z,101055.25
2024-01-28T09:46:46.469Z,101056.94
2024-01-28T09:49:14.266Z,101057.03
2024-01-28T09:51:43.189Z,101048.22
2024-01-28T09:54:13.814Z,101063.03
2024-01-28T09:56:44.178Z,101061.34
2024-01-28T09:59:12.017Z,101049.91
2024-01-28T10:01:43.007Z,101053.53
2024-01-28T10:04:11.648Z,101058.81
2024-01-28T10:06:39.233Z,101051.63
2024-01-28T10:09:07.187Z,101066.56
2024-01-28T10:11:36.016Z,101047.31
2024-01-28T10:14:03.607Z,101048.91
2024-01-28T10:16:32.888Z,101051.63
2024-01-28T10:19:00.622Z,101060.41
2024-01-28T10:21:28.337Z,101051.63
2024-01-28T10:23:55.892Z,101048.03
2024-01-28T10:26:23.496Z,101042.78
2024-01-28T10:28:52.493Z,101035.81
2024-01-28T10:31:23.762Z,101041.84
2024-01-28T10:33:51.542Z,101030.41
2024-01-28T10:36:19.542Z,101031.13
2024-01-28T10:38:47.569Z,101027.75
2024-01-28T10:41:17.543Z,101026.94
2024-01-28T10:43:47.517Z,101025.34
2024-01-28T10:46:18.459Z,101026.25
2024-01-28T10:48:46.097Z,101019.22
2024-01-28T10:51:15.151Z,101012.13
2024-01-28T10:53:42.830Z,101011.22
2024-01-28T10:56:12.807Z,101013.09
2024-01-28T10:58:40.492Z,101011.28
2024-01-28T11:01:08.773Z,101009.53
2024-01-28T11:03:38.301Z,101002.34
2024-01-28T11:06:06.539Z,100996.19
2024-01-28T11:08:34.125Z,100998.59
2024-01-28T11:11:01.609Z,100996.72
2024-01-28T11:13:29.153Z,100987.75
2024-01-28T11:15:56.773Z,100982.44
2024-01-28T11:18:29.948Z,100975.31
2024-01-28T11:20:58.839Z,100976.06
2024-01-28T11:23:30.669Z,100971.59
2024-01-28T11:25:58.176Z,100978.84
2024-01-28T11:28:26.552Z,100964.75
2024-01-28T11:30:54.931Z,100967.47
2024-01-28T11:33:23.190Z,100969.16
2024-01-28T11:35:50.841Z,100959.38
2024-01-28T11:38:22.108Z,100968.06
2024-01-28T11:40:50.325Z,100969.16
2024-01-28T11:43:17.941Z,100964.41
2024-01-28T11:45:45.533Z,100954.97
2024-01-28T11:48:13.955Z,100960.25
2024-01-28T11:50:42.159Z,100956.59
2024-01-28T11:53:10.674Z,100954.78
2024-01-28T11:55:40.563Z,100946.81
2024-01-28T11:58:08.144Z,100949.22
2024-01-28T12:00:35.920Z,100943.94
2024-01-28T12:03:04.855Z,100946.50
2024-01-28T12:05:33.468Z,100940.34
2024-01-28T12:08:03.914Z,100938.53
2024-01-28T12:10:33.362Z,100936.72
2024-01-28T12:13:02.401Z,100940.09
2024-01-28T12:15:29.837Z,100928.63
2024-01-28T12:17:59.377Z,100925.28
2024-01-28T12:20:27.847Z,100928.69
2024-01-28T12:22:55.710Z,100919.88
2024-01-28T12:25:24.106Z,100922.50
2024-01-28T12:27:52.383Z,100913.00
2024-01-28T12:30:21.617Z,100917.28
2024-01-28T12:32:50.903Z,100912.97
2024-01-28T12:35:18.728Z,100906.94
2024-01-28T12:37:46.312Z,100906.78
2024-01-28T12:40:14.025Z,100901.34
2024-01-28T12:42:42.464Z,100903.06
2024-01-28T12:45:11.625Z,100896.13
2024-01-28T12:47:41.798Z,100892.47
2024-01-28T12:50:10.688Z,100877.59
2024-01-28T12:52:38.404Z,100882.06
2024-01-28T12:55:06.494Z,100884.56
2024-01-28T12:57:36.605Z,100881.06
2024-01-28T13:00:07.357Z,100883.75
2024-01-28T13:02:35.020Z,100875.84
2024-01-28T13:05:05.540Z,100876.63
2024-01-28T13:07:33.351Z,100874.91
2024-01-28T13:10:00.939Z,100874.81
2024-01-28T13:12:34.352Z,100863.56
2024-01-28T13:15:01.887Z,100866.09
2024-01-28T13:17:29.530Z,100860.91
2024-01-28T13:19:57.148Z,100862.44
2024-01-28T13:22:26.138Z,100862.38
2024-01-28T13:24:55.219Z,100856.25
2024-01-28T13:27:22.947Z,100856.28
2024-01-28T13:29:50.912Z,100857.84
2024-01-28T13:32:19.512Z,100850.06
2024-01-28T13:34:47.309Z,100850.91
2024-01-28T13:37:15.085Z,100844.03
2024-01-28T13:39:44.008Z,100848.63
2024-01-28T13:42:11.392Z,100838.19
2024-01-28T13:44:38.884Z,100836.25
2024-01-28T13:47:06.465Z,100835.44
2024-01-28T13:49:34.314Z,100833.78
2024-01-28T13:52:01.938Z,100829.47
2024-01-28T13:54:29.452Z,100828.50
2024-01-28T13:56:58.409Z,100827.75
2024-01-28T13:59:25.772Z,100827.81
2024-01-28T14:01:53.333Z,100818.31
2024-01-28T14:04:21.301Z,100817.38
2024-01-28T14:06:49.474Z,100809.47
2024-01-28T14:09:18.015Z,100804.31
2024-01-28T14:11:45.630Z,100810.44
2024-01-28T14:14:14.556Z,100806.88
2024-01-28T14:16:41.913Z,100796.25
2024-01-28T14:19:09.494Z,100790.72
2024-01-28T14:21:37.125Z,100794.50
2024-01-28T14:24:04.734Z,100791.75
2024-01-28T14:26:32.245Z,100794.38
2024-01-28T14:28:59.751Z,100791.47
2024-01-28T14:31:28.614Z,100792.13
2024-01-28T14:33:56.188Z,100795.88
2024-01-28T14:36:23.935Z,100794.88
2024-01-28T14:38:51.516Z,100790.50
2024-01-28T14:41:19.410Z,100790.50
2024-01-28T14:43:48.735Z,100785.97
2024-01-28T14:46:16.245Z,100787.06
2024-01-28T14:48:45.337Z,100790.72
2024-01-28T14:51:12.978Z,100782.19
2024-01-28T14:53:40.663Z,100776.97
2024-01-28T14:56:08.964Z,100778.56
2024-01-28T14:58:36.546Z,100785.69
2024-01-28T15:01:04.221Z,100789.97
2024-01-28T15:03:31.936Z,100779.41
2024-01-28T15:06:00.971Z,100780.28
2024-01-28T15:08:28.343Z,100782.97
2024-01-28T15:10:55.857Z,100776.81
2024-01-28T15:13:23.491Z,100780.41
2024-01-28T15:15:51.068Z,100781.44
2024-01-28T15:18:18.768Z,100779.34
2024-01-28T15:20:46.530Z,100784.63
2024-01-28T15:23:15.731Z,100787.47
2024-01-28T15:25:43.282Z,100783.06
2024-01-28T15:28:17.847Z,100777.63
2024-01-28T15:30:52.277Z,100771.78
2024-01-28T15:33:19.918Z,100777.06
2024-01-28T15:35:47.555Z,100778.75
2024-01-28T15:38:16.601Z,100771.69
2024-01-28T15:40:44.762Z,100768.19
2024-01-28T15:43:12.379Z,100763.72
2024-01-28T15:45:39.930Z,100772.75
2024-01-28T15:48:10.555Z,100757.84
2024-01-28T15:50:38.548Z,100762.16
2024-01-28T15:53:06.088Z,100766.53
2024-01-28T15:55:35.204Z,100766.56
2024-01-28T15:58:02.583Z,100764.84
2024-01-28T16:00:30.090Z,100769.31
2024-01-28T16:02:57.621Z,100763.94
2024-01-28T16:05:25.307Z,100768.00
2024-01-28T16:07:53.264Z,100762.72
2024-01-28T16:10:21.202Z,100759.31
2024-01-28T16:12:50.560Z,100755.97
2024-01-28T16:15:18.160Z,100756.03
2024-01-28T16:17:47.387Z,100761.50
2024-01-28T16:20:15.143Z,100765.00
2024-01-28T16:22:42.815Z,100768.25
2024-01-28T16:25:10.779Z,100759.41
2024-01-28T16:27:38.720Z,100760.50
2024-01-28T16:30:09.037Z,100762.47
2024-01-28T16:32:36.545Z,100763.03
2024-01-28T16:35:07.283Z,100759.38
2024-01-28T16:37:36.768Z,100762.09
2024-01-28T16:40:04.845Z,100762.16
2024-01-28T16:42:32.453Z,100764.91
2024-01-28T16:45:00.081Z,100764.91
2024-01-28T16:47:28.972Z,100771.97
2024-01-28T16:49:56.584Z,100770.28
2024-01-28T16:52:24.206Z,100777.59
2024-01-28T16:54:51.736Z,100775.81
2024-01-28T16:57:19.351Z,100771.50
2024-01-28T16:59:46.903Z,100773.28
2024-01-28T17:02:14.690Z,100775.56
2024-01-28T17:04:43.585Z,100774.53
2024-01-28T17:07:11.311Z,100774.59
2024-01-28T17:09:39.140Z,100771.03
2024-01-28T17:12:08.221Z,100779.81
2024-01-28T17:14:35.784Z,100776.56
2024-01-28T17:17:03.483Z,100774.81
2024-01-28T17:19:30.995Z,100765.13
2024-01-28T17:21:59.980Z,100765.94
2024-01-28T17:24:27.376Z,100764.09
2024-01-28T17:26:55.260Z,100768.34
2024-01-28T17:29:23.429Z,100764.16
2024-01-28T17:31:50.930Z,100764.31
2024-01-28T17:34:19.276Z,100767.88
2024-01-28T17:36:46.939Z,100760.06
2024-01-28T17:39:16.715Z,100757.41
2024-01-28T17:41:44.371Z,100750.41
2024-01-28T17:44:11.946Z,100754.78
2024-01-28T17:46:39.466Z,100752.94
2024-01-28T17:49:07.193Z,100753.06
2024-01-28T17:51:35.190Z,100750.16
2024-01-28T17:56:11.978Z,100752.16
2024-01-28T17:58:39.553Z,100752.94
2024-01-28T18:01:10.462Z,100756.72
2024-01-28T18:03:39.191Z,100756.72
2024-01-28T18:06:07.449Z,100751.44
2024-01-28T18:08:35.058Z,100759.31
2024-01-28T18:11:03.979Z,100746.97
2024-01-28T18:13:32.850Z,100754.13
2024-01-28T18:16:00.533Z,100751.38
2024-01-28T18:18:28.290Z,100754.69
2024-01-28T18:20:55.954Z,100752.78
2024-01-28T18:23:23.483Z,100756.28
2024-01-28T18:25:51.024Z,100747.56
2024-01-28T18:28:18.574Z,100751.81
2024-01-28T18:30:50.307Z,100746.56
2024-01-28T18:33:17.994Z,100745.91
2024-01-28T18:35:46.159Z,100743.06
2024-01-28T18:38:13.681Z,100742.09
2024-01-28T18:40:41.244Z,100749.28
2024-01-28T18:43:08.858Z,100734.19
2024-01-28T18:45:38.043Z,100735.19
2024-01-28T18:48:07.633Z,100743.72
2024-01-28T18:50:40.748Z,100744.63
2024-01-28T18:53:08.306Z,100740.41
2024-01-28T18:55:35.840Z,100737.13
2024-01-28T18:58:04.153Z,100746.66
2024-01-28T19:00:31.712Z,100743.97
2024-01-28T19:02:59.698Z,100748.38
2024-01-28T19:05:28.651Z,100756.09
2024-01-28T19:07:56.062Z,100739.41
2024-01-28T19:10:23.624Z,100743.72
2024-01-28T19:12:51.213Z,100743.97
2024-01-28T19:15:18.901Z,100750.00
2024-01-28T19:17:46.513Z,100751.03
2024-01-28T19:20:20.195Z,100753.56
2024-01-28T19:22:49.142Z,100748.28
2024-01-28T19:25:18.145Z,100741.59
2024-01-28T19:27:45.645Z,100747.56
2024-01-28T19:30:14.418Z,100747.63
2024-01-28T19:32:41.969Z,100743.16
2024-01-28T19:35:09.925Z,100737.94
2024-01-28T19:37:37.580Z,100739.72
2024-01-28T19:40:07.860Z,100733.69
2024-01-28T19:42:35.545Z,100736.22
2024-01-28T19:45:03.150Z,100739.66
2024-01-28T19:47:30.760Z,100729.28
2024-01-28T19:49:58.473Z,100727.41
2024-01-28T19:52:26.031Z,100733.59
2024-01-28T19:54:54.666Z,100728.47
2024-01-28T19:57:23.600Z,100726.81
2024-01-28T19:59:51.147Z,100722.38
2024-01-28T20:02:18.937Z,100724.88
2024-01-28T20:04:46.685Z,100718.63
2024-01-28T20:07:16.233Z,100725.88
2024-01-28T20:09:44.690Z,100724.66
2024-01-28T20:12:12.203Z,100717.75
2024-01-28T20:14:42.736Z,100723.47
2024-01-28T20:17:12.349Z,100721.69
2024-01-28T20:19:39.984Z,100712.81
2024-01-28T20:22:07.593Z,100712.81
2024-01-28T20:24:35.271Z,100706.72
2024-01-28T20:27:02.867Z,100711.75
2024-01-28T20:29:30.560Z,100706.25
2024-01-28T20:31:59.439Z,100707.97
2024-01-28T20:34:27.122Z,100712.91
2024-01-28T20:36:55.069Z,100708.94
2024-01-28T20:39:23.803Z,100708.06
2024-01-28T20:41:51.417Z,100705.44
2024-01-28T20:44:19.770Z,100698.19
2024-01-28T20:46:47.636Z,100707.00
2024-01-28T20:49:16.565Z,100706.78
2024-01-28T20:51:43.988Z,100705.38
2024-01-28T20:54:13.511Z,100704.69
2024-01-28T20:56:41.097Z,100705.50
2024-01-28T20:59:08.589Z,100708.06
2024-01-28T21:01:36.414Z,100703.78
2024-01-28T21:04:04.323Z,100709.91
2024-01-28T21:06:33.217Z,100702.69
2024-01-28T21:09:00.665Z,100705.38
2024-01-28T21:11:28.165Z,100700.13
2024-01-28T21:13:55.773Z,100707.00
2024-01-28T21:16:23.356Z,100708.88
2024-01-28T21:18:51.006Z,100701.56
2024-01-28T21:21:19.112Z,100707.00
2024-01-28T21:23:47.979Z,100707.13
2024-01-28T21:26:16.746Z,100701.72
2024-01-28T21:28:44.576Z,100701.63
2024-01-28T21:31:12.326Z,100701.78
2024-01-28T21:33:40.055Z,100707.97
2024-01-28T21:36:08.078Z,100707.00
2024-01-28T21:38:35.719Z,100703.72
2024-01-28T21:41:04.889Z,100700.16
2024-01-28T21:43:32.407Z,100695.75
2024-01-28T21:46:00.059Z,100700.00
2024-01-28T21:48:27.812Z,100698.28
2024-01-28T21:50:55.474Z,100703.78
2024-01-28T21:53:22.978Z,100702.91
2024-01-28T21:55:50.556Z,100703.88
2024-01-28T21:58:19.403Z,100701.41
2024-01-28T22:00:47.460Z,100699.31
2024-01-28T22:03:15.826Z,100710.78
2024-01-28T22:05:43.344Z,100706.09
2024-01-28T22:08:10.862Z,100702.69
2024-01-28T22:10:38.392Z,100697.38
2024-01-28T22:13:05.964Z,100695.81
2024-01-28T22:15:34.856Z,100691.28
2024-01-28T22:18:02.404Z,100691.56
2024-01-28T22:20:29.957Z,100699.47
2024-01-28T22:22:57.584Z,100690.47
2024-01-28T22:25:25.736Z,100693.00
2024-01-28T22:27:53.324Z,100694.84
2024-01-28T22:30:20.932Z,100697.44
2024-01-28T22:32:50.106Z,100700.22
2024-01-28T22:35:17.658Z,100705.50
2024-01-28T22:37:45.365Z,100702.00
2024-01-28T22:40:13.945Z,100706.25
2024-01-28T22:42:41.770Z,100705.16
2024-01-28T22:45:10.682Z,100706.34
2024-01-28T22:47:38.199Z,100714.09
2024-01-28T22:50:10.657Z,100702.47
2024-01-28T22:52:38.167Z,100700.91
2024-01-28T22:55:07.808Z,100702.66
2024-01-28T22:57:35.462Z,100703.78
2024-01-28T23:00:04.668Z,100711.75
2024-01-28T23:02:32.252Z,100703.13
2024-01-28T23:05:00.540Z,100707.53
2024-01-28T23:07:29.747Z,100709.91
2024-01-28T23:09:57.298Z,100705.44
2024-01-28T23:12:25.825Z,100698.50
2024-01-28T23:14:56.519Z,100708.94
2024-01-28T23:17:28.531Z,100705.59
2024-01-28T23:19:56.199Z,100697.69
2024-01-28T23:22:23.759Z,100703.03
2024-01-28T23:24:52.938Z,100699.38
2024-01-28T23:27:20.493Z,100711.63
2024-01-28T23:29:48.046Z,100703.78
2024-01-28T23:32:15.928Z,100703.88
2024-01-28T23:34:43.556Z,100706.69
2024-01-28T23:37:11.133Z,100702.25
2024-01-28T23:39:38.862Z,100703.28
2024-01-28T23:42:07.918Z,100698.06
2024-01-28T23:44:35.253Z,100702.31
2024-01-28T23:47:02.897Z,100696.19
2024-01-28T23:49:30.540Z,100688.50
2024-01-28T23:51:58.183Z,100691.63
2024-01-28T23:54:25.721Z,100688.28
2024-01-28T23:56:53.237Z,100687.47
2024-01-28T23:59:22.375Z,100678.88
